sensor_id;sensor_type;location;lat;lon;timestamp;pressure;altitude;pressure_sealevel;temperature;humidity
35758;BME280;21879;50.110;18.900;2023-09-08T00:04:58;99440.17;;;16.65;64.28
35758;BME280;21879;50.110;18.900;2023-09-08T00:15:26;99434.89;;;16.51;64.57
35758;BME280;21879;50.110;18.900;2023-09-08T00:25:54;99429.63;;;16.50;64.01
35758;BME280;21879;50.110;18.900;2023-09-08T00:36:22;99428.98;;;16.39;63.35
35758;BME280;21879;50.110;18.900;2023-09-08T00:46:51;99433.95;;;16.28;62.86
35758;BME280;21879;50.110;18.900;2023-09-08T00:57:19;99423.99;;;16.18;62.73
35758;BME280;21879;50.110;18.900;2023-09-08T01:07:49;99421.15;;;16.02;63.39
35758;BME280;21879;50.110;18.900;2023-09-08T01:18:17;99419.14;;;15.80;64.22
35758;BME280;21879;50.110;18.900;2023-09-08T01:28:46;99423.64;;;15.83;65.08
35758;BME280;21879;50.110;18.900;2023-09-08T01:39:16;99432.91;;;15.85;65.10
35758;BME280;21879;50.110;18.900;2023-09-08T01:49:44;99423.52;;;15.89;64.59
35758;BME280;21879;50.110;18.900;2023-09-08T02:00:14;99425.92;;;15.92;64.87
35758;BME280;21879;50.110;18.900;2023-09-08T02:10:42;99422.56;;;15.93;64.56
35758;BME280;21879;50.110;18.900;2023-09-08T02:21:10;99425.17;;;15.94;64.27
35758;BME280;21879;50.110;18.900;2023-09-08T02:31:36;99426.16;;;16.06;64.08
35758;BME280;21879;50.110;18.900;2023-09-08T02:42:04;99425.84;;;15.96;64.53
35758;BME280;21879;50.110;18.900;2023-09-08T02:52:31;99419.61;;;16.01;64.39
35758;BME280;21879;50.110;18.900;2023-09-08T03:03:00;99419.80;;;15.99;63.62
35758;BME280;21879;50.110;18.900;2023-09-08T03:13:27;99413.09;;;15.94;63.35
35758;BME280;21879;50.110;18.900;2023-09-08T03:23:55;99398.02;;;15.85;62.71
35758;BME280;21879;50.110;18.900;2023-09-08T03:34:23;99395.79;;;15.73;62.29
35758;BME280;21879;50.110;18.900;2023-09-08T03:44:52;99390.96;;;15.68;62.36
35758;BME280;21879;50.110;18.900;2023-09-08T03:55:21;99385.37;;;15.66;62.38
35758;BME280;21879;50.110;18.900;2023-09-08T04:05:49;99380.88;;;15.62;62.67
35758;BME280;21879;50.110;18.900;2023-09-08T04:16:18;99388.44;;;15.52;61.84
35758;BME280;21879;50.110;18.900;2023-09-08T04:26:47;99387.32;;;15.37;62.16
35758;BME280;21879;50.110;18.900;2023-09-08T04:37:13;99394.11;;;15.08;63.01
35758;BME280;21879;50.110;18.900;2023-09-08T04:47:41;99399.52;;;14.99;63.74
35758;BME280;21879;50.110;18.900;2023-09-08T04:58:10;99399.95;;;15.04;64.10
35758;BME280;21879;50.110;18.900;2023-09-08T05:08:36;99401.44;;;15.10;64.14
35758;BME280;21879;50.110;18.900;2023-09-08T05:19:05;99408.11;;;14.98;64.82
35758;BME280;21879;50.110;18.900;2023-09-08T05:29:33;99403.48;;;15.12;65.79
35758;BME280;21879;50.110;18.900;2023-09-08T05:40:10;99404.41;;;15.70;67.28
35758;BME280;21879;50.110;18.900;2023-09-08T05:50:39;99410.75;;;16.46;67.77
35758;BME280;21879;50.110;18.900;2023-09-08T06:01:07;99418.48;;;17.35;68.03
35758;BME280;21879;50.110;18.900;2023-09-08T06:11:35;99413.11;;;18.17;67.80
35758;BME280;21879;50.110;18.900;2023-09-08T06:22:03;99405.67;;;19.00;67.11
35758;BME280;21879;50.110;18.900;2023-09-08T06:32:31;99408.04;;;19.85;66.08
35758;BME280;21879;50.110;18.900;2023-09-08T06:42:59;99408.35;;;20.62;64.65
35758;BME280;21879;50.110;18.900;2023-09-08T06:53:29;99409.95;;;21.29;63.04
35758;BME280;21879;50.110;18.900;2023-09-08T07:03:58;99407.27;;;21.70;60.88
35758;BME280;21879;50.110;18.900;2023-09-08T07:14:27;99406.58;;;22.14;59.72
35758;BME280;21879;50.110;18.900;2023-09-08T07:24:54;99407.63;;;22.53;58.60
35758;BME280;21879;50.110;18.900;2023-09-08T07:35:22;99406.70;;;22.83;57.63
35758;BME280;21879;50.110;18.900;2023-09-08T07:45:50;99405.34;;;23.15;57.12
35758;BME280;21879;50.110;18.900;2023-09-08T07:56:18;99402.69;;;23.47;56.36
35758;BME280;21879;50.110;18.900;2023-09-08T08:06:47;99398.30;;;23.46;55.26
35758;BME280;21879;50.110;18.900;2023-09-08T08:17:15;99390.88;;;23.42;54.83
35758;BME280;21879;50.110;18.900;2023-09-08T08:27:46;99391.52;;;23.43;54.83
35758;BME280;21879;50.110;18.900;2023-09-08T08:38:14;99387.16;;;23.66;55.12
35758;BME280;21879;50.110;18.900;2023-09-08T08:48:44;99381.81;;;23.93;54.45
35758;BME280;21879;50.110;18.900;2023-09-08T08:59:13;99377.03;;;24.13;53.61
35758;BME280;21879;50.110;18.900;2023-09-08T09:09:42;99375.75;;;24.30;52.88
35758;BME280;21879;50.110;18.900;2023-09-08T09:20:18;99371.26;;;24.40;52.30
35758;BME280;21879;50.110;18.900;2023-09-08T09:30:51;99363.56;;;24.54;51.56
35758;BME280;21879;50.110;18.900;2023-09-08T09:41:20;99354.38;;;24.50;51.19
35758;BME280;21879;50.110;18.900;2023-09-08T09:51:52;99351.15;;;24.51;51.47
35758;BME280;21879;50.110;18.900;2023-09-08T10:02:21;99345.50;;;24.47;51.76
35758;BME280;21879;50.110;18.900;2023-09-08T10:12:53;99336.83;;;24.62;51.14
35758;BME280;21879;50.110;18.900;2023-09-08T10:23:28;99336.85;;;24.65;49.86
35758;BME280;21879;50.110;18.900;2023-09-08T10:33:59;99329.44;;;24.60;50.09
35758;BME280;21879;50.110;18.900;2023-09-08T10:44:29;99323.16;;;24.71;50.09
35758;BME280;21879;50.110;18.900;2023-09-08T10:54:59;99321.68;;;24.84;49.12
35758;BME280;21879;50.110;18.900;2023-09-08T11:05:28;99313.84;;;24.96;48.90
35758;BME280;21879;50.110;18.900;2023-09-08T11:15:58;99303.70;;;25.03;48.22
35758;BME280;21879;50.110;18.900;2023-09-08T11:26:27;99296.31;;;25.01;47.09
35758;BME280;21879;50.110;18.900;2023-09-08T11:36:55;99295.50;;;24.91;46.61
35758;BME280;21879;50.110;18.900;2023-09-08T11:47:24;99286.16;;;24.95;46.33
35758;BME280;21879;50.110;18.900;2023-09-08T11:57:54;99285.67;;;25.01;46.55
35758;BME280;21879;50.110;18.900;2023-09-08T12:08:26;99278.98;;;25.08;46.18
35758;BME280;21879;50.110;18.900;2023-09-08T12:18:53;99271.23;;;25.19;45.68
35758;BME280;21879;50.110;18.900;2023-09-08T12:29:22;99263.38;;;25.31;45.91
35758;BME280;21879;50.110;18.900;2023-09-08T12:39:54;99256.27;;;25.34;44.18
35758;BME280;21879;50.110;18.900;2023-09-08T12:50:22;99248.52;;;25.33;42.80
35758;BME280;21879;50.110;18.900;2023-09-08T13:00:50;99241.40;;;25.33;42.75
35758;BME280;21879;50.110;18.900;2023-09-08T13:11:17;99235.42;;;25.35;41.91
35758;BME280;21879;50.110;18.900;2023-09-08T13:21:45;99221.80;;;25.36;41.00
35758;BME280;21879;50.110;18.900;2023-09-08T13:32:13;99215.39;;;25.36;40.40
35758;BME280;21879;50.110;18.900;2023-09-08T13:42:40;99208.52;;;25.37;40.31
35758;BME280;21879;50.110;18.900;2023-09-08T13:53:08;99202.81;;;25.38;40.56
35758;BME280;21879;50.110;18.900;2023-09-08T14:03:38;99201.73;;;25.35;40.46
35758;BME280;21879;50.110;18.900;2023-09-08T14:14:09;99194.30;;;25.29;40.95
35758;BME280;21879;50.110;18.900;2023-09-08T14:24:37;99185.67;;;25.27;41.13
35758;BME280;21879;50.110;18.900;2023-09-08T14:35:06;99180.57;;;25.26;41.77
35758;BME280;21879;50.110;18.900;2023-09-08T14:45:34;99175.35;;;25.24;41.74
35758;BME280;21879;50.110;18.900;2023-09-08T14:56:01;99169.02;;;25.23;42.72
35758;BME280;21879;50.110;18.900;2023-09-08T15:06:31;99164.67;;;25.19;42.59
35758;BME280;21879;50.110;18.900;2023-09-08T15:16:58;99162.80;;;25.12;42.59
35758;BME280;21879;50.110;18.900;2023-09-08T15:27:26;99161.25;;;25.10;43.72
35758;BME280;21879;50.110;18.900;2023-09-08T15:37:54;99157.98;;;25.05;44.50
35758;BME280;21879;50.110;18.900;2023-09-08T15:48:21;99151.67;;;25.01;45.61
35758;BME280;21879;50.110;18.900;2023-09-08T15:58:49;99148.40;;;24.93;45.65
35758;BME280;21879;50.110;18.900;2023-09-08T16:09:16;99144.15;;;24.82;46.86
35758;BME280;21879;50.110;18.900;2023-09-08T16:19:44;99140.21;;;24.62;48.41
35758;BME280;21879;50.110;18.900;2023-09-08T16:30:13;99132.65;;;24.39;49.44
35758;BME280;21879;50.110;18.900;2023-09-08T16:40:41;99127.44;;;24.16;50.40
35758;BME280;21879;50.110;18.900;2023-09-08T16:51:11;99134.05;;;23.90;51.13
35758;BME280;21879;50.110;18.900;2023-09-08T17:01:39;99130.63;;;23.59;51.73
35758;BME280;21879;50.110;18.900;2023-09-08T17:12:08;99133.73;;;23.22;53.11
35758;BME280;21879;50.110;18.900;2023-09-08T17:22:36;99133.09;;;22.84;53.93
35758;BME280;21879;50.110;18.900;2023-09-08T17:33:04;99145.25;;;22.58;54.35
35758;BME280;21879;50.110;18.900;2023-09-08T17:43:31;99150.08;;;22.37;54.72
35758;BME280;21879;50.110;18.900;2023-09-08T17:53:59;99156.59;;;22.09;54.76
35758;BME280;21879;50.110;18.900;2023-09-08T18:04:27;99166.70;;;21.75;55.00
35758;BME280;21879;50.110;18.900;2023-09-08T18:14:55;99162.11;;;21.49;55.19
35758;BME280;21879;50.110;18.900;2023-09-08T18:25:23;99165.30;;;21.21;55.73
35758;BME280;21879;50.110;18.900;2023-09-08T18:35:50;99159.54;;;21.00;55.99
35758;BME280;21879;50.110;18.900;2023-09-08T18:46:19;99156.09;;;20.78;56.42
35758;BME280;21879;50.110;18.900;2023-09-08T18:56:47;99154.33;;;20.45;56.76
35758;BME280;21879;50.110;18.900;2023-09-08T19:07:14;99152.84;;;20.29;56.95
35758;BME280;21879;50.110;18.900;2023-09-08T19:17:42;99160.61;;;20.17;57.61
35758;BME280;21879;50.110;18.900;2023-09-08T19:28:10;99166.23;;;19.97;57.88
35758;BME280;21879;50.110;18.900;2023-09-08T19:38:38;99166.09;;;19.77;57.89
35758;BME280;21879;50.110;18.900;2023-09-08T19:49:05;99170.66;;;19.64;58.29
35758;BME280;21879;50.110;18.900;2023-09-08T19:59:33;99165.34;;;19.56;58.78
35758;BME280;21879;50.110;18.900;2023-09-08T20:10:01;99168.16;;;19.36;58.77
35758;BME280;21879;50.110;18.900;2023-09-08T20:20:28;99177.81;;;19.19;59.13
35758;BME280;21879;50.110;18.900;2023-09-08T20:30:56;99178.89;;;19.04;59.40
35758;BME280;21879;50.110;18.900;2023-09-08T20:41:40;99182.39;;;18.95;60.13
35758;BME280;21879;50.110;18.900;2023-09-08T20:52:08;99184.02;;;18.94;59.99
35758;BME280;21879;50.110;18.900;2023-09-08T21:02:38;99187.62;;;18.82;59.36
35758;BME280;21879;50.110;18.900;2023-09-08T21:13:06;99185.14;;;18.71;59.13
35758;BME280;21879;50.110;18.900;2023-09-08T21:23:34;99189.46;;;18.53;59.64
35758;BME280;21879;50.110;18.900;2023-09-08T21:34:02;99182.66;;;18.41;59.58
35758;BME280;21879;50.110;18.900;2023-09-08T21:44:30;99178.19;;;18.27;59.20
35758;BME280;21879;50.110;18.900;2023-09-08T21:54:58;99176.98;;;18.21;59.20
35758;BME280;21879;50.110;18.900;2023-09-08T22:05:26;99179.10;;;18.11;59.24
35758;BME280;21879;50.110;18.900;2023-09-08T22:15:54;99177.88;;;17.88;60.00
35758;BME280;21879;50.110;18.900;2023-09-08T22:26:23;99173.86;;;17.63;60.30
35758;BME280;21879;50.110;18.900;2023-09-08T22:36:51;99174.36;;;17.47;60.96
35758;BME280;21879;50.110;18.900;2023-09-08T22:47:19;99169.66;;;17.39;60.88
35758;BME280;21879;50.110;18.900;2023-09-08T22:57:48;99162.45;;;17.28;60.72
35758;BME280;21879;50.110;18.900;2023-09-08T23:08:17;99158.80;;;17.20;60.34
35758;BME280;21879;50.110;18.900;2023-09-08T23:18:45;99157.69;;;17.10;60.61
35758;BME280;21879;50.110;18.900;2023-09-08T23:29:13;99150.41;;;17.01;60.90
35758;BME280;21879;50.110;18.900;2023-09-08T23:39:42;99142.09;;;16.84;60.87
35758;BME280;21879;50.110;18.900;2023-09-08T23:50:10;99142.27;;;16.77;60.59
